sensor_id;sensor_type;location;lat;lon;timestamp;P1;durP1;ratioP1;P2;durP2;ratioP2
18194;SDS011;9223;50.988;3.162;2023-04-08T00:00:47;9.05;;;5.75;;
18194;SDS011;9223;50.988;3.162;2023-04-08T00:06:52;7.63;;;5.18;;
18194;SDS011;9223;50.988;3.162;2023-04-08T00:12:56;9.68;;;4.90;;
18194;SDS011;9223;50.988;3.162;2023-04-08T00:19:01;6.45;;;4.55;;
18194;SDS011;9223;50.988;3.162;2023-04-08T00:25:08;7.40;;;4.97;;
18194;SDS011;9223;50.988;3.162;2023-04-08T00:31:12;5.88;;;4.63;;
18194;SDS011;9223;50.988;3.162;2023-04-08T00:37:15;10.30;;;5.20;;
18194;SDS011;9223;50.988;3.162;2023-04-08T00:43:20;7.57;;;4.90;;
18194;SDS011;9223;50.988;3.162;2023-04-08T00:49:24;7.10;;;4.43;;
18194;SDS011;9223;50.988;3.162;2023-04-08T00:55:28;8.80;;;5.50;;
18194;SDS011;9223;50.988;3.162;2023-04-08T01:01:36;6.35;;;4.82;;
18194;SDS011;9223;50.988;3.162;2023-04-08T01:07:43;8.73;;;4.78;;
18194;SDS011;9223;50.988;3.162;2023-04-08T01:13:48;8.35;;;4.57;;
18194;SDS011;9223;50.988;3.162;2023-04-08T01:19:53;7.70;;;4.80;;
18194;SDS011;9223;50.988;3.162;2023-04-08T01:25:58;8.05;;;4.68;;
18194;SDS011;9223;50.988;3.162;2023-04-08T01:32:02;6.13;;;4.35;;
18194;SDS011;9223;50.988;3.162;2023-04-08T01:38:07;8.68;;;5.05;;
18194;SDS011;9223;50.988;3.162;2023-04-08T01:44:12;7.28;;;4.55;;
18194;SDS011;9223;50.988;3.162;2023-04-08T01:50:17;9.60;;;5.07;;
18194;SDS011;9223;50.988;3.162;2023-04-08T01:56:21;12.20;;;5.55;;
18194;SDS011;9223;50.988;3.162;2023-04-08T02:02:26;11.05;;;5.43;;
18194;SDS011;9223;50.988;3.162;2023-04-08T02:08:32;8.25;;;5.28;;
18194;SDS011;9223;50.988;3.162;2023-04-08T02:14:36;7.88;;;4.82;;
18194;SDS011;9223;50.988;3.162;2023-04-08T02:20:42;7.82;;;5.22;;
18194;SDS011;9223;50.988;3.162;2023-04-08T02:26:46;5.15;;;4.30;;
18194;SDS011;9223;50.988;3.162;2023-04-08T02:32:52;4.80;;;3.90;;
18194;SDS011;9223;50.988;3.162;2023-04-08T02:38:58;5.97;;;3.90;;
18194;SDS011;9223;50.988;3.162;2023-04-08T02:45:01;7.05;;;3.65;;
18194;SDS011;9223;50.988;3.162;2023-04-08T02:51:05;4.65;;;3.47;;
18194;SDS011;9223;50.988;3.162;2023-04-08T02:57:10;5.95;;;4.18;;
18194;SDS011;9223;50.988;3.162;2023-04-08T03:03:17;5.70;;;4.22;;
18194;SDS011;9223;50.988;3.162;2023-04-08T03:09:28;8.10;;;4.40;;
18194;SDS011;9223;50.988;3.162;2023-04-08T03:15:33;9.52;;;4.63;;
18194;SDS011;9223;50.988;3.162;2023-04-08T03:21:36;5.80;;;4.75;;
18194;SDS011;9223;50.988;3.162;2023-04-08T03:27:40;5.90;;;4.40;;
18194;SDS011;9223;50.988;3.162;2023-04-08T03:33:45;6.50;;;4.95;;
18194;SDS011;9223;50.988;3.162;2023-04-08T03:39:48;6.53;;;4.60;;
18194;SDS011;9223;50.988;3.162;2023-04-08T03:45:52;6.18;;;4.57;;
18194;SDS011;9223;50.988;3.162;2023-04-08T03:51:57;7.30;;;4.78;;
18194;SDS011;9223;50.988;3.162;2023-04-08T03:58:00;8.45;;;4.55;;
18194;SDS011;9223;50.988;3.162;2023-04-08T04:04:04;7.35;;;5.05;;
18194;SDS011;9223;50.988;3.162;2023-04-08T04:10:09;9.98;;;6.07;;
18194;SDS011;9223;50.988;3.162;2023-04-08T04:16:12;8.13;;;5.22;;
18194;SDS011;9223;50.988;3.162;2023-04-08T04:22:16;8.02;;;4.50;;
18194;SDS011;9223;50.988;3.162;2023-04-08T04:28:21;8.95;;;5.00;;
18194;SDS011;9223;50.988;3.162;2023-04-08T04:34:25;8.45;;;5.28;;
18194;SDS011;9223;50.988;3.162;2023-04-08T04:40:28;11.38;;;6.00;;
18194;SDS011;9223;50.988;3.162;2023-04-08T04:46:33;8.70;;;5.57;;
18194;SDS011;9223;50.988;3.162;2023-04-08T04:52:36;8.50;;;4.72;;
18194;SDS011;9223;50.988;3.162;2023-04-08T04:58:40;8.55;;;5.07;;
18194;SDS011;9223;50.988;3.162;2023-04-08T05:04:45;7.97;;;5.25;;
18194;SDS011;9223;50.988;3.162;2023-04-08T05:10:48;9.25;;;5.57;;
18194;SDS011;9223;50.988;3.162;2023-04-08T05:16:52;7.28;;;5.35;;
18194;SDS011;9223;50.988;3.162;2023-04-08T05:22:56;9.82;;;6.13;;
18194;SDS011;9223;50.988;3.162;2023-04-08T05:29:00;7.95;;;5.47;;
18194;SDS011;9223;50.988;3.162;2023-04-08T05:35:03;7.13;;;5.25;;
18194;SDS011;9223;50.988;3.162;2023-04-08T05:41:09;6.68;;;5.25;;
18194;SDS011;9223;50.988;3.162;2023-04-08T05:47:12;9.52;;;5.95;;
18194;SDS011;9223;50.988;3.162;2023-04-08T05:53:16;7.93;;;5.20;;
18194;SDS011;9223;50.988;3.162;2023-04-08T05:59:21;5.50;;;3.50;;
18194;SDS011;9223;50.988;3.162;2023-04-08T06:05:24;10.60;;;6.20;;
18194;SDS011;9223;50.988;3.162;2023-04-08T06:11:28;7.72;;;4.82;;
18194;SDS011;9223;50.988;3.162;2023-04-08T06:17:33;6.90;;;5.53;;
18194;SDS011;9223;50.988;3.162;2023-04-08T06:23:38;7.13;;;5.15;;
18194;SDS011;9223;50.988;3.162;2023-04-08T06:29:42;8.07;;;6.50;;
18194;SDS011;9223;50.988;3.162;2023-04-08T06:35:47;6.00;;;5.25;;
18194;SDS011;9223;50.988;3.162;2023-04-08T06:41:50;6.75;;;5.18;;
18194;SDS011;9223;50.988;3.162;2023-04-08T06:47:55;7.38;;;4.93;;
18194;SDS011;9223;50.988;3.162;2023-04-08T06:54:00;7.68;;;5.55;;
18194;SDS011;9223;50.988;3.162;2023-04-08T07:00:04;8.45;;;5.28;;
18194;SDS011;9223;50.988;3.162;2023-04-08T07:06:08;6.88;;;5.18;;
18194;SDS011;9223;50.988;3.162;2023-04-08T07:12:13;5.00;;;4.50;;
18194;SDS011;9223;50.988;3.162;2023-04-08T07:18:16;8.10;;;5.57;;
18194;SDS011;9223;50.988;3.162;2023-04-08T07:24:21;8.65;;;5.70;;
18194;SDS011;9223;50.988;3.162;2023-04-08T07:30:26;6.28;;;4.97;;
18194;SDS011;9223;50.988;3.162;2023-04-08T07:36:30;7.35;;;5.40;;
18194;SDS011;9223;50.988;3.162;2023-04-08T07:42:33;5.40;;;4.03;;
18194;SDS011;9223;50.988;3.162;2023-04-08T07:48:40;5.07;;;4.57;;
18194;SDS011;9223;50.988;3.162;2023-04-08T07:54:43;6.63;;;4.93;;
18194;SDS011;9223;50.988;3.162;2023-04-08T08:00:47;4.88;;;3.10;;
18194;SDS011;9223;50.988;3.162;2023-04-08T08:06:52;3.97;;;2.70;;
18194;SDS011;9223;50.988;3.162;2023-04-08T08:12:56;6.32;;;3.22;;
18194;SDS011;9223;50.988;3.162;2023-04-08T08:18:59;4.50;;;4.05;;
18194;SDS011;9223;50.988;3.162;2023-04-08T08:25:06;4.20;;;3.22;;
18194;SDS011;9223;50.988;3.162;2023-04-08T08:31:10;4.20;;;3.17;;
18194;SDS011;9223;50.988;3.162;2023-04-08T08:37:14;4.32;;;3.65;;
18194;SDS011;9223;50.988;3.162;2023-04-08T08:43:19;5.88;;;4.30;;
18194;SDS011;9223;50.988;3.162;2023-04-08T08:49:22;5.00;;;4.30;;
18194;SDS011;9223;50.988;3.162;2023-04-08T08:55:28;4.75;;;4.07;;
18194;SDS011;9223;50.988;3.162;2023-04-08T09:01:53;6.95;;;4.60;;
18194;SDS011;9223;50.988;3.162;2023-04-08T09:07:57;5.13;;;4.25;;
18194;SDS011;9223;50.988;3.162;2023-04-08T09:14:01;6.20;;;3.92;;
18194;SDS011;9223;50.988;3.162;2023-04-08T09:20:07;5.18;;;4.15;;
18194;SDS011;9223;50.988;3.162;2023-04-08T09:26:15;4.65;;;4.07;;
18194;SDS011;9223;50.988;3.162;2023-04-08T09:32:19;5.05;;;4.00;;
18194;SDS011;9223;50.988;3.162;2023-04-08T09:38:24;4.95;;;2.85;;
18194;SDS011;9223;50.988;3.162;2023-04-08T09:44:28;3.80;;;3.40;;
18194;SDS011;9223;50.988;3.162;2023-04-08T09:50:32;4.65;;;3.45;;
18194;SDS011;9223;50.988;3.162;2023-04-08T09:56:42;4.60;;;4.18;;
18194;SDS011;9223;50.988;3.162;2023-04-08T10:02:48;4.88;;;3.60;;
18194;SDS011;9223;50.988;3.162;2023-04-08T10:08:57;5.43;;;4.22;;
18194;SDS011;9223;50.988;3.162;2023-04-08T10:21:33;5.50;;;4.22;;
18194;SDS011;9223;50.988;3.162;2023-04-08T10:27:37;6.30;;;5.13;;
18194;SDS011;9223;50.988;3.162;2023-04-08T10:33:42;5.30;;;4.10;;
18194;SDS011;9223;50.988;3.162;2023-04-08T10:39:49;7.95;;;4.45;;
18194;SDS011;9223;50.988;3.162;2023-04-08T10:45:53;6.85;;;3.83;;
18194;SDS011;9223;50.988;3.162;2023-04-08T10:51:56;7.63;;;4.80;;
18194;SDS011;9223;50.988;3.162;2023-04-08T10:58:05;6.15;;;4.35;;
18194;SDS011;9223;50.988;3.162;2023-04-08T11:04:12;6.05;;;4.32;;
18194;SDS011;9223;50.988;3.162;2023-04-08T11:10:16;7.18;;;5.30;;
18194;SDS011;9223;50.988;3.162;2023-04-08T11:16:21;6.22;;;4.35;;
18194;SDS011;9223;50.988;3.162;2023-04-08T11:22:27;5.65;;;4.50;;
18194;SDS011;9223;50.988;3.162;2023-04-08T11:28:33;5.93;;;4.15;;
18194;SDS011;9223;50.988;3.162;2023-04-08T11:34:39;6.10;;;4.10;;
18194;SDS011;9223;50.988;3.162;2023-04-08T11:40:51;6.75;;;5.22;;
18194;SDS011;9223;50.988;3.162;2023-04-08T11:46:55;9.65;;;5.57;;
18194;SDS011;9223;50.988;3.162;2023-04-08T11:53:00;7.93;;;4.95;;
18194;SDS011;9223;50.988;3.162;2023-04-08T11:59:04;9.20;;;5.60;;
18194;SDS011;9223;50.988;3.162;2023-04-08T12:05:07;8.77;;;6.55;;
18194;SDS011;9223;50.988;3.162;2023-04-08T12:11:13;11.40;;;6.10;;
18194;SDS011;9223;50.988;3.162;2023-04-08T12:17:20;9.02;;;6.15;;
18194;SDS011;9223;50.988;3.162;2023-04-08T12:23:24;9.90;;;7.13;;
18194;SDS011;9223;50.988;3.162;2023-04-08T12:29:29;10.70;;;7.15;;
18194;SDS011;9223;50.988;3.162;2023-04-08T12:35:32;9.75;;;7.20;;
18194;SDS011;9223;50.988;3.162;2023-04-08T12:41:35;8.27;;;7.28;;
18194;SDS011;9223;50.988;3.162;2023-04-08T12:47:40;11.40;;;8.15;;
18194;SDS011;9223;50.988;3.162;2023-04-08T12:53:44;9.95;;;7.95;;
18194;SDS011;9223;50.988;3.162;2023-04-08T12:59:47;13.70;;;8.88;;
18194;SDS011;9223;50.988;3.162;2023-04-08T13:05:52;10.32;;;8.27;;
18194;SDS011;9223;50.988;3.162;2023-04-08T13:11:56;10.88;;;8.00;;
18194;SDS011;9223;50.988;3.162;2023-04-08T13:18:00;12.98;;;8.57;;
18194;SDS011;9223;50.988;3.162;2023-04-08T13:24:06;12.32;;;9.05;;
18194;SDS011;9223;50.988;3.162;2023-04-08T13:30:10;13.00;;;9.80;;
18194;SDS011;9223;50.988;3.162;2023-04-08T13:36:14;15.77;;;9.93;;
18194;SDS011;9223;50.988;3.162;2023-04-08T13:42:18;12.52;;;9.00;;
18194;SDS011;9223;50.988;3.162;2023-04-08T13:48:22;18.27;;;10.95;;
18194;SDS011;9223;50.988;3.162;2023-04-08T13:54:26;13.82;;;10.27;;
18194;SDS011;9223;50.988;3.162;2023-04-08T14:00:30;13.20;;;9.40;;
18194;SDS011;9223;50.988;3.162;2023-04-08T14:06:34;17.58;;;10.05;;
18194;SDS011;9223;50.988;3.162;2023-04-08T14:12:37;14.45;;;10.23;;
18194;SDS011;9223;50.988;3.162;2023-04-08T14:18:42;16.08;;;11.38;;
18194;SDS011;9223;50.988;3.162;2023-04-08T14:24:46;17.17;;;12.13;;
18194;SDS011;9223;50.988;3.162;2023-04-08T14:30:49;18.25;;;11.32;;
18194;SDS011;9223;50.988;3.162;2023-04-08T14:36:54;17.98;;;12.25;;
18194;SDS011;9223;50.988;3.162;2023-04-08T14:42:58;16.20;;;12.00;;
18194;SDS011;9223;50.988;3.162;2023-04-08T14:49:01;22.45;;;12.43;;
18194;SDS011;9223;50.988;3.162;2023-04-08T14:55:07;18.77;;;13.77;;
18194;SDS011;9223;50.988;3.162;2023-04-08T15:01:11;21.08;;;14.63;;
18194;SDS011;9223;50.988;3.162;2023-04-08T15:07:14;22.20;;;14.30;;
18194;SDS011;9223;50.988;3.162;2023-04-08T15:13:20;20.33;;;13.52;;
18194;SDS011;9223;50.988;3.162;2023-04-08T15:19:23;21.55;;;14.20;;
18194;SDS011;9223;50.988;3.162;2023-04-08T15:25:27;22.98;;;13.38;;
18194;SDS011;9223;50.988;3.162;2023-04-08T15:31:32;18.70;;;11.90;;
18194;SDS011;9223;50.988;3.162;2023-04-08T15:37:36;21.52;;;13.38;;
18194;SDS011;9223;50.988;3.162;2023-04-08T15:43:39;20.65;;;12.32;;
18194;SDS011;9223;50.988;3.162;2023-04-08T15:49:44;22.95;;;13.48;;
18194;SDS011;9223;50.988;3.162;2023-04-08T15:55:49;23.05;;;13.40;;
18194;SDS011;9223;50.988;3.162;2023-04-08T16:01:52;21.08;;;13.20;;
18194;SDS011;9223;50.988;3.162;2023-04-08T16:07:57;21.33;;;14.02;;
18194;SDS011;9223;50.988;3.162;2023-04-08T16:14:00;22.67;;;14.63;;
18194;SDS011;9223;50.988;3.162;2023-04-08T16:20:05;21.85;;;14.43;;
18194;SDS011;9223;50.988;3.162;2023-04-08T16:26:10;22.52;;;13.88;;
18194;SDS011;9223;50.988;3.162;2023-04-08T16:32:14;23.52;;;15.15;;
18194;SDS011;9223;50.988;3.162;2023-04-08T16:38:17;24.52;;;16.20;;
18194;SDS011;9223;50.988;3.162;2023-04-08T16:44:22;22.17;;;15.68;;
18194;SDS011;9223;50.988;3.162;2023-04-08T16:50:26;25.08;;;15.70;;
18194;SDS011;9223;50.988;3.162;2023-04-08T16:56:29;22.55;;;15.35;;
18194;SDS011;9223;50.988;3.162;2023-04-08T17:02:34;22.92;;;15.38;;
18194;SDS011;9223;50.988;3.162;2023-04-08T17:08:38;22.00;;;15.40;;
18194;SDS011;9223;50.988;3.162;2023-04-08T17:14:43;23.25;;;15.60;;
18194;SDS011;9223;50.988;3.162;2023-04-08T17:20:48;25.90;;;15.88;;
18194;SDS011;9223;50.988;3.162;2023-04-08T17:26:52;21.77;;;16.10;;
18194;SDS011;9223;50.988;3.162;2023-04-08T17:32:57;23.23;;;16.23;;
18194;SDS011;9223;50.988;3.162;2023-04-08T17:39:03;21.85;;;14.43;;
18194;SDS011;9223;50.988;3.162;2023-04-08T17:45:07;21.38;;;13.93;;
18194;SDS011;9223;50.988;3.162;2023-04-08T17:51:11;18.58;;;14.13;;
18194;SDS011;9223;50.988;3.162;2023-04-08T17:57:16;18.30;;;13.07;;
18194;SDS011;9223;50.988;3.162;2023-04-08T18:03:19;17.63;;;12.90;;
18194;SDS011;9223;50.988;3.162;2023-04-08T18:09:23;20.35;;;14.25;;
18194;SDS011;9223;50.988;3.162;2023-04-08T18:15:28;23.77;;;15.80;;
18194;SDS011;9223;50.988;3.162;2023-04-08T18:21:31;22.25;;;15.60;;
18194;SDS011;9223;50.988;3.162;2023-04-08T18:27:35;23.63;;;16.33;;
18194;SDS011;9223;50.988;3.162;2023-04-08T18:33:40;23.55;;;16.52;;
18194;SDS011;9223;50.988;3.162;2023-04-08T18:39:43;20.90;;;14.70;;
18194;SDS011;9223;50.988;3.162;2023-04-08T18:45:47;22.58;;;16.20;;
18194;SDS011;9223;50.988;3.162;2023-04-08T18:51:51;28.05;;;17.75;;
18194;SDS011;9223;50.988;3.162;2023-04-08T18:58:03;27.33;;;17.95;;
18194;SDS011;9223;50.988;3.162;2023-04-08T19:04:08;27.30;;;19.25;;
18194;SDS011;9223;50.988;3.162;2023-04-08T19:10:13;30.60;;;19.67;;
18194;SDS011;9223;50.988;3.162;2023-04-08T19:16:17;30.95;;;18.00;;
18194;SDS011;9223;50.988;3.162;2023-04-08T19:22:20;29.45;;;18.20;;
18194;SDS011;9223;50.988;3.162;2023-04-08T19:28:26;33.88;;;19.75;;
18194;SDS011;9223;50.988;3.162;2023-04-08T19:34:29;35.90;;;20.27;;
18194;SDS011;9223;50.988;3.162;2023-04-08T19:40:33;32.40;;;19.80;;
18194;SDS011;9223;50.988;3.162;2023-04-08T19:46:38;34.55;;;18.95;;
18194;SDS011;9223;50.988;3.162;2023-04-08T19:52:42;35.35;;;19.23;;
18194;SDS011;9223;50.988;3.162;2023-04-08T19:58:45;33.60;;;18.83;;
18194;SDS011;9223;50.988;3.162;2023-04-08T20:04:51;38.65;;;19.80;;
18194;SDS011;9223;50.988;3.162;2023-04-08T20:10:55;33.40;;;18.83;;
18194;SDS011;9223;50.988;3.162;2023-04-08T20:16:59;37.38;;;20.95;;
18194;SDS011;9223;50.988;3.162;2023-04-08T20:23:04;36.45;;;20.15;;
18194;SDS011;9223;50.988;3.162;2023-04-08T20:29:08;36.45;;;20.58;;
18194;SDS011;9223;50.988;3.162;2023-04-08T20:35:12;40.28;;;21.08;;
18194;SDS011;9223;50.988;3.162;2023-04-08T20:41:18;43.45;;;23.40;;
18194;SDS011;9223;50.988;3.162;2023-04-08T20:47:22;48.53;;;24.55;;
18194;SDS011;9223;50.988;3.162;2023-04-08T20:53:26;47.38;;;24.75;;
18194;SDS011;9223;50.988;3.162;2023-04-08T20:59:31;48.83;;;25.10;;
18194;SDS011;9223;50.988;3.162;2023-04-08T21:05:35;46.28;;;24.25;;
18194;SDS011;9223;50.988;3.162;2023-04-08T21:11:39;44.35;;;23.98;;
18194;SDS011;9223;50.988;3.162;2023-04-08T21:17:43;51.92;;;27.27;;
18194;SDS011;9223;50.988;3.162;2023-04-08T21:23:47;49.42;;;26.75;;
18194;SDS011;9223;50.988;3.162;2023-04-08T21:29:50;51.28;;;27.48;;
18194;SDS011;9223;50.988;3.162;2023-04-08T21:35:55;43.35;;;24.73;;
18194;SDS011;9223;50.988;3.162;2023-04-08T21:41:59;43.17;;;23.70;;
18194;SDS011;9223;50.988;3.162;2023-04-08T21:48:03;48.50;;;26.50;;
18194;SDS011;9223;50.988;3.162;2023-04-08T21:54:08;49.92;;;27.00;;
18194;SDS011;9223;50.988;3.162;2023-04-08T22:00:12;49.97;;;26.55;;
18194;SDS011;9223;50.988;3.162;2023-04-08T22:06:16;50.60;;;27.88;;
18194;SDS011;9223;50.988;3.162;2023-04-08T22:12:33;48.08;;;25.85;;
18194;SDS011;9223;50.988;3.162;2023-04-08T22:18:37;44.28;;;23.48;;
18194;SDS011;9223;50.988;3.162;2023-04-08T22:24:40;44.25;;;23.70;;
18194;SDS011;9223;50.988;3.162;2023-04-08T22:30:45;45.08;;;24.65;;
18194;SDS011;9223;50.988;3.162;2023-04-08T22:36:49;45.47;;;23.83;;
18194;SDS011;9223;50.988;3.162;2023-04-08T22:42:52;44.35;;;25.05;;
18194;SDS011;9223;50.988;3.162;2023-04-08T22:48:57;41.83;;;22.48;;
18194;SDS011;9223;50.988;3.162;2023-04-08T22:55:01;42.58;;;23.17;;
18194;SDS011;9223;50.988;3.162;2023-04-08T23:01:09;41.35;;;23.85;;
18194;SDS011;9223;50.988;3.162;2023-04-08T23:07:13;47.10;;;25.48;;
18194;SDS011;9223;50.988;3.162;2023-04-08T23:13:17;44.72;;;22.90;;
18194;SDS011;9223;50.988;3.162;2023-04-08T23:19:21;40.83;;;22.58;;
18194;SDS011;9223;50.988;3.162;2023-04-08T23:25:26;45.38;;;25.80;;
18194;SDS011;9223;50.988;3.162;2023-04-08T23:31:29;43.00;;;24.58;;
18194;SDS011;9223;50.988;3.162;2023-04-08T23:37:33;41.00;;;23.80;;
18194;SDS011;9223;50.988;3.162;2023-04-08T23:43:37;42.53;;;24.70;;
18194;SDS011;9223;50.988;3.162;2023-04-08T23:49:41;40.90;;;24.20;;
18194;SDS011;9223;50.988;3.162;2023-04-08T23:55:45;37.55;;;22.60;;
